Hozan Maru — JJ4010 — position and weather

sailwx.info

Track history (hours):
 
Tides and Currents Weather Stations Pressure Air Temp Water Temp Dewpoint Dewpoint Depression Visibility Wind Speed Wind Dir Waves Ship Positions

Hozan Maru

Last reported at 2015-Jul-31 08:30 UTC. Time now 2015-Aug-02 00:18 UTC.
Position N 34°41' E 135°16'.

Length 38 m; draft 3.6 m.

Type: Tug. MMSI: 431401501.

Date/timePositionNaut miles runAvg speedWind from/ knotsBaromVisibWave heightAir tempDewpointWater temp
2015-Jul-31 08:30N 34°41' E 135°16'8 0.2
2015-Jul-29 09:33N 34°39' E 135°26'3 2.7
2015-Jul-29 08:33N 34°38' E 135°23'1 1.1
2015-Jul-29 07:33N 34°39' E 135°24'0 0.0
2015-Jul-29 06:33N 34°39' E 135°24'0 0.0
2015-Jul-29 05:33N 34°39' E 135°24'0 0.0
2015-Jul-29 04:33N 34°39' E 135°24'0 0.0
2015-Jul-29 03:33N 34°39' E 135°24'0 0.0
2015-Jul-29 02:33N 34°39' E 135°24'0 0.0
2015-Jul-29 01:33N 34°39' E 135°24'0 0.0
2015-Jul-29 00:32N 34°39' E 135°24'0 0.0
2015-Jul-28 23:33N 34°39' E 135°24'0 0.1
2015-Jul-28 22:33N 34°39' E 135°24'1 0.8
2015-Jul-28 21:33N 34°38' E 135°23'3 3.1
2015-Jul-28 20:33N 34°36' E 135°20'4 3.6
2015-Jul-28 19:33N 34°38' E 135°24'3 3.4
2015-Jul-28 18:33N 34°40' E 135°27'0 0.0
2015-Jul-28 17:33N 34°40' E 135°27'0 0.0
2015-Jul-28 16:33N 34°40' E 135°27'0 0.0
2015-Jul-28 15:33N 34°40' E 135°27'0 0.0
2015-Jul-28 14:33N 34°40' E 135°27'0 0.0
2015-Jul-28 13:33N 34°40' E 135°27'0 0.0
2015-Jul-28 12:32N 34°40' E 135°27'0 0.0
2015-Jul-28 11:33N 34°40' E 135°27'0 0.0
2015-Jul-28 10:33N 34°40' E 135°27'0 0.0
2015-Jul-28 09:33N 34°40' E 135°27'0 0.0
2015-Jul-28 08:32N 34°40' E 135°27'0 0.0
2015-Jul-28 07:26N 34°40' E 135°27'0 0.0
2015-Jul-28 06:33N 34°40' E 135°27'9 8.8
2015-Jul-28 05:33N 34°38' E 135°17'1714.1
2015-Jul-28 04:21N 34°37' E 134°56'8 1.1
2015-Jul-27 21:18N 34°40' E 134°48'7 0.5
2015-Jul-27 08:33N 34°37' E 134°55'1514.8
2015-Jul-27 07:32N 34°35' E 135°13'9 9.1
2015-Jul-27 06:33N 34°31' E 135°23'1 0.8
2015-Jul-27 05:34N 34°32' E 135°23'1 0.2
2015-Jul-26 22:32N 34°31' E 135°24'5 5.4
2015-Jul-26 21:32N 34°27' E 135°19'1212.5
2015-Jul-26 20:33N 34°39' E 135°24'2 0.1
2015-Jul-26 04:33N 34°40' E 135°27'7 7.2
2015-Jul-26 03:33N 34°40' E 135°18'0 0.2
2015-Jul-26 02:33N 34°40' E 135°18'0 0.2
2015-Jul-26 01:33N 34°40' E 135°18'0 0.1
2015-Jul-26 00:32N 34°40' E 135°18'0 0.4
2015-Jul-25 23:33N 34°40' E 135°17'0 0.2
2015-Jul-25 22:34N 34°40' E 135°18'3 3.1
2015-Jul-25 21:33N 34°43' E 135°19'5 5.0
2015-Jul-25 20:33N 34°39' E 135°24'3 0.2
2015-Jul-25 08:33N 34°40' E 135°27'9 8.6
2015-Jul-25 07:32N 34°32' E 135°22'2 0.4
2015-Jul-25 03:30N 34°31' E 135°23'7 7.2
2015-Jul-25 02:33N 34°34' E 135°15'1514.6
2015-Jul-25 01:33N 34°37' E 134°58'1 0.3
2015-Jul-24 22:33N 34°38' E 134°58'1212.3
2015-Jul-24 21:33N 34°38' E 135°13'1212.0
2015-Jul-24 20:33N 34°40' E 135°27'0 0.0
2015-Jul-23 08:17N 34°40' E 135°27'2 2.4
2015-Jul-23 07:32N 34°39' E 135°25'0 0.4
2015-Jul-23 06:33N 34°39' E 135°26'0 0.0
2015-Jul-23 05:33N 34°39' E 135°26'0 0.0
2015-Jul-23 04:32N 34°39' E 135°26'0 0.0
2015-Jul-23 03:33N 34°39' E 135°26'0 0.0
2015-Jul-23 02:33N 34°39' E 135°26'0 0.0
2015-Jul-23 01:33N 34°39' E 135°26'0 0.0
2015-Jul-23 00:33N 34°39' E 135°26'6 6.6
2015-Jul-22 23:33N 34°40' E 135°18'1 0.5
2015-Jul-22 22:33N 34°40' E 135°17'0 0.2
2015-Jul-22 21:33N 34°40' E 135°17'6 5.6
2015-Jul-22 20:32N 34°39' E 135°24'2 0.1
2015-Jul-22 03:04N 34°40' E 135°27'2 3.3
2015-Jul-22 02:33N 34°39' E 135°25'2 2.1
2015-Jul-22 01:33N 34°38' E 135°23'4 3.8
2015-Jul-22 00:33N 34°40' E 135°27'4 0.4
2015-Jul-21 16:33N 34°40' E 135°23'4 4.2
2015-Jul-21 15:34N 34°40' E 135°18'0 0.0
2015-Jul-21 14:33N 34°40' E 135°18'0 0.0
2015-Jul-21 13:34N 34°40' E 135°18'0 0.2
2015-Jul-21 12:33N 34°40' E 135°18'0 0.2
2015-Jul-21 11:33N 34°40' E 135°18'0 0.2
2015-Jul-21 10:33N 34°40' E 135°17'0 0.3
2015-Jul-21 09:33N 34°40' E 135°18'5 4.6
2015-Jul-21 08:33N 34°40' E 135°23'  
Track history (hours):
 
Tides and Currents Weather Stations Pressure Air Temp Water Temp Dewpoint Dewpoint Depression Visibility Wind Speed Wind Dir Waves Ship Positions

Hozan Maru

Last reported at 2015-Jul-31 08:30 UTC. Time now 2015-Aug-02 00:18 UTC.
Position N 34°41' E 135°16'.

Length 38 m; draft 3.6 m.

Type: Tug. MMSI: 431401501.

Date/timePositionNaut miles runAvg speedWind from/ knotsBaromVisibWave heightAir tempDewpointWater temp
2015-Jul-31 08:30N 34°41' E 135°16'8 0.2
2015-Jul-29 09:33N 34°39' E 135°26'3 2.7
2015-Jul-29 08:33N 34°38' E 135°23'1 1.1
2015-Jul-29 07:33N 34°39' E 135°24'0 0.0
2015-Jul-29 06:33N 34°39' E 135°24'0 0.0
2015-Jul-29 05:33N 34°39' E 135°24'0 0.0
2015-Jul-29 04:33N 34°39' E 135°24'0 0.0
2015-Jul-29 03:33N 34°39' E 135°24'0 0.0
2015-Jul-29 02:33N 34°39' E 135°24'0 0.0
2015-Jul-29 01:33N 34°39' E 135°24'0 0.0
2015-Jul-29 00:32N 34°39' E 135°24'0 0.0
2015-Jul-28 23:33N 34°39' E 135°24'0 0.1
2015-Jul-28 22:33N 34°39' E 135°24'1 0.8
2015-Jul-28 21:33N 34°38' E 135°23'3 3.1
2015-Jul-28 20:33N 34°36' E 135°20'4 3.6
2015-Jul-28 19:33N 34°38' E 135°24'3 3.4
2015-Jul-28 18:33N 34°40' E 135°27'0 0.0
2015-Jul-28 17:33N 34°40' E 135°27'0 0.0
2015-Jul-28 16:33N 34°40' E 135°27'0 0.0
2015-Jul-28 15:33N 34°40' E 135°27'0 0.0
2015-Jul-28 14:33N 34°40' E 135°27'0 0.0
2015-Jul-28 13:33N 34°40' E 135°27'0 0.0
2015-Jul-28 12:32N 34°40' E 135°27'0 0.0
2015-Jul-28 11:33N 34°40' E 135°27'0 0.0
2015-Jul-28 10:33N 34°40' E 135°27'0 0.0
2015-Jul-28 09:33N 34°40' E 135°27'0 0.0
2015-Jul-28 08:32N 34°40' E 135°27'0 0.0
2015-Jul-28 07:26N 34°40' E 135°27'0 0.0
2015-Jul-28 06:33N 34°40' E 135°27'9 8.8
2015-Jul-28 05:33N 34°38' E 135°17'1714.1
2015-Jul-28 04:21N 34°37' E 134°56'8 1.1
2015-Jul-27 21:18N 34°40' E 134°48'7 0.5
2015-Jul-27 08:33N 34°37' E 134°55'1514.8
2015-Jul-27 07:32N 34°35' E 135°13'9 9.1
2015-Jul-27 06:33N 34°31' E 135°23'1 0.8
2015-Jul-27 05:34N 34°32' E 135°23'1 0.2
2015-Jul-26 22:32N 34°31' E 135°24'5 5.4
2015-Jul-26 21:32N 34°27' E 135°19'1212.5
2015-Jul-26 20:33N 34°39' E 135°24'2 0.1
2015-Jul-26 04:33N 34°40' E 135°27'7 7.2
2015-Jul-26 03:33N 34°40' E 135°18'0 0.2
2015-Jul-26 02:33N 34°40' E 135°18'0 0.2
2015-Jul-26 01:33N 34°40' E 135°18'0 0.1
2015-Jul-26 00:32N 34°40' E 135°18'0 0.4
2015-Jul-25 23:33N 34°40' E 135°17'0 0.2
2015-Jul-25 22:34N 34°40' E 135°18'3 3.1
2015-Jul-25 21:33N 34°43' E 135°19'5 5.0
2015-Jul-25 20:33N 34°39' E 135°24'3 0.2
2015-Jul-25 08:33N 34°40' E 135°27'9 8.6
2015-Jul-25 07:32N 34°32' E 135°22'2 0.4
2015-Jul-25 03:30N 34°31' E 135°23'7 7.2
2015-Jul-25 02:33N 34°34' E 135°15'1514.6
2015-Jul-25 01:33N 34°37' E 134°58'1 0.3
2015-Jul-24 22:33N 34°38' E 134°58'1212.3
2015-Jul-24 21:33N 34°38' E 135°13'1212.0
2015-Jul-24 20:33N 34°40' E 135°27'0 0.0
2015-Jul-23 08:17N 34°40' E 135°27'2 2.4
2015-Jul-23 07:32N 34°39' E 135°25'0 0.4
2015-Jul-23 06:33N 34°39' E 135°26'0 0.0
2015-Jul-23 05:33N 34°39' E 135°26'0 0.0
2015-Jul-23 04:32N 34°39' E 135°26'0 0.0
2015-Jul-23 03:33N 34°39' E 135°26'0 0.0
2015-Jul-23 02:33N 34°39' E 135°26'0 0.0
2015-Jul-23 01:33N 34°39' E 135°26'0 0.0
2015-Jul-23 00:33N 34°39' E 135°26'6 6.6
2015-Jul-22 23:33N 34°40' E 135°18'1 0.5
2015-Jul-22 22:33N 34°40' E 135°17'0 0.2
2015-Jul-22 21:33N 34°40' E 135°17'6 5.6
2015-Jul-22 20:32N 34°39' E 135°24'2 0.1
2015-Jul-22 03:04N 34°40' E 135°27'2 3.3
2015-Jul-22 02:33N 34°39' E 135°25'2 2.1
2015-Jul-22 01:33N 34°38' E 135°23'4 3.8
2015-Jul-22 00:33N 34°40' E 135°27'4 0.4
2015-Jul-21 16:33N 34°40' E 135°23'4 4.2
2015-Jul-21 15:34N 34°40' E 135°18'0 0.0
2015-Jul-21 14:33N 34°40' E 135°18'0 0.0
2015-Jul-21 13:34N 34°40' E 135°18'0 0.2
2015-Jul-21 12:33N 34°40' E 135°18'0 0.2
2015-Jul-21 11:33N 34°40' E 135°18'0 0.2
2015-Jul-21 10:33N 34°40' E 135°17'0 0.3
2015-Jul-21 09:33N 34°40' E 135°18'5 4.6
2015-Jul-21 08:33N 34°40' E 135°23'  

Dump ship's entire track history